createdAt,value
2023-02-02T00:00:30.323Z,95.98
2023-02-02T00:05:31.928Z,96.04
2023-02-02T00:10:33.463Z,98.32
2023-02-02T00:15:35.063Z,100.00
2023-02-02T00:20:36.670Z,100.00
2023-02-02T00:25:38.314Z,100.00
2023-02-02T00:30:39.909Z,100.00
2023-02-02T00:35:41.950Z,100.00
2023-02-02T00:40:43.998Z,100.00
2023-02-02T00:45:45.676Z,100.00
2023-02-02T00:50:47.225Z,100.00
2023-02-02T00:55:48.774Z,100.00
2023-02-02T01:00:50.325Z,100.00
2023-02-02T01:05:52.034Z,100.00
2023-02-02T01:10:53.599Z,100.00
2023-02-02T01:15:59.421Z,100.00
2023-02-02T01:21:04.718Z,100.00
2023-02-02T01:26:08.861Z,100.00
2023-02-02T01:31:14.272Z,100.00
2023-02-02T01:36:19.645Z,100.00
2023-02-02T01:41:24.742Z,100.00
2023-02-02T01:46:29.599Z,100.00
2023-02-02T01:51:58.111Z,100.00
2023-02-02T01:57:04.919Z,100.00
2023-02-02T02:02:07.567Z,100.00
2023-02-02T02:07:10.093Z,100.00
2023-02-02T02:12:14.583Z,100.00
2023-02-02T02:17:25.716Z,100.00
2023-02-02T02:23:08.617Z,100.00
2023-02-02T02:28:44.851Z,100.00
2023-02-02T02:34:07.839Z,100.00
2023-02-02T02:39:40.038Z,100.00
2023-02-02T02:44:42.076Z,100.00
2023-02-02T02:49:45.387Z,100.00
2023-02-02T02:54:51.289Z,100.00
2023-02-02T03:00:18.303Z,100.00
2023-02-02T03:05:51.074Z,100.00
2023-02-02T03:10:53.920Z,100.00
2023-02-02T03:15:56.068Z,100.00
2023-02-02T03:20:58.004Z,100.00
2023-02-02T03:25:59.810Z,100.00
2023-02-02T03:31:02.420Z,100.00
2023-02-02T03:36:04.291Z,100.00
2023-02-02T03:41:06.215Z,100.00
2023-02-02T03:46:07.908Z,100.00
2023-02-02T03:51:11.944Z,100.00
2023-02-02T03:56:14.309Z,100.00
2023-02-02T04:01:15.948Z,100.00
2023-02-02T04:06:19.810Z,100.00
2023-02-02T04:11:21.410Z,100.00
2023-02-02T04:16:23.508Z,100.00
2023-02-02T04:21:25.067Z,100.00
2023-02-02T04:26:27.161Z,100.00
2023-02-02T04:31:29.904Z,100.00
2023-02-02T04:36:31.525Z,100.00
2023-02-02T04:41:33.080Z,100.00
2023-02-02T04:46:34.623Z,100.00
2023-02-02T04:51:36.201Z,100.00
2023-02-02T04:56:40.138Z,100.00
2023-02-02T05:01:41.726Z,100.00
2023-02-02T05:06:43.270Z,100.00
2023-02-02T05:11:44.946Z,100.00
2023-02-02T05:16:46.555Z,100.00
2023-02-02T05:21:51.142Z,100.00
2023-02-02T05:26:58.338Z,100.00
2023-02-02T05:32:00.340Z,100.00
2023-02-02T05:37:01.981Z,100.00
2023-02-02T05:42:03.701Z,100.00
2023-02-02T05:47:05.578Z,100.00
2023-02-02T05:52:07.265Z,100.00
2023-02-02T05:57:08.800Z,100.00
2023-02-02T06:02:10.332Z,100.00
2023-02-02T06:07:12.506Z,100.00
2023-02-02T06:12:14.082Z,100.00
2023-02-02T06:17:15.680Z,100.00
2023-02-02T06:22:17.300Z,100.00
2023-02-02T06:27:20.701Z,100.00
2023-02-02T06:32:22.273Z,100.00
2023-02-02T06:37:23.925Z,100.00
2023-02-02T06:42:25.509Z,100.00
2023-02-02T06:47:27.298Z,100.00
2023-02-02T06:52:28.958Z,100.00
2023-02-02T06:57:30.676Z,100.00
2023-02-02T07:02:32.337Z,100.00
2023-02-02T07:07:35.028Z,100.00
2023-02-02T07:12:36.562Z,100.00
2023-02-02T07:17:38.192Z,100.00
2023-02-02T07:22:40.399Z,100.00
2023-02-02T07:27:42.142Z,100.00
2023-02-02T07:32:50.667Z,100.00
2023-02-02T07:37:54.182Z,100.00
2023-02-02T07:42:55.998Z,100.00
2023-02-02T07:47:59.173Z,100.00
2023-02-02T07:53:01.104Z,100.00
2023-02-02T07:58:02.930Z,100.00
2023-02-02T08:03:04.583Z,100.00
2023-02-02T08:08:06.169Z,100.00
2023-02-02T08:13:07.725Z,100.00
2023-02-02T08:18:09.312Z,100.00
2023-02-02T08:23:15.645Z,100.00
2023-02-02T08:28:18.328Z,100.00
2023-02-02T08:33:19.905Z,100.00
2023-02-02T08:38:23.863Z,100.00
2023-02-02T08:43:25.405Z,100.00
2023-02-02T08:48:27.055Z,100.00
2023-02-02T08:53:29.786Z,100.00
2023-02-02T08:58:32.300Z,100.00
2023-02-02T09:03:35.106Z,100.00
2023-02-02T09:08:37.368Z,100.00
2023-02-02T09:13:40.578Z,100.00
2023-02-02T09:18:43.583Z,100.00
2023-02-02T09:23:46.711Z,100.00
2023-02-02T09:28:57.438Z,100.00
2023-02-02T09:34:03.251Z,100.00
2023-02-02T09:39:06.384Z,100.00
2023-02-02T09:44:29.765Z,99.71
2023-02-02T09:49:59.316Z,99.81
2023-02-02T09:55:07.116Z,99.49
2023-02-02T10:00:29.486Z,99.14
2023-02-02T10:05:44.798Z,99.67
2023-02-02T10:10:48.196Z,98.95
2023-02-02T10:16:03.639Z,98.50
2023-02-02T10:21:27.580Z,98.30
2023-02-02T10:26:55.617Z,97.47
2023-02-02T10:32:00.392Z,97.31
2023-02-02T10:37:15.408Z,96.39
2023-02-02T10:43:13.081Z,95.78
2023-02-02T10:48:22.167Z,95.78
2023-02-02T10:53:28.498Z,95.24
2023-02-02T10:58:44.724Z,93.59
2023-02-02T11:03:46.422Z,93.71
2023-02-02T11:08:56.832Z,93.43
2023-02-02T11:14:11.416Z,93.41
2023-02-02T11:19:22.026Z,94.04
2023-02-02T11:24:28.419Z,93.28
2023-02-02T11:29:39.270Z,93.75
2023-02-02T11:34:40.836Z,93.50
2023-02-02T11:39:45.178Z,92.24
2023-02-02T11:44:55.694Z,92.75
2023-02-02T11:50:00.889Z,93.48
2023-02-02T11:55:14.917Z,93.51
2023-02-02T12:00:19.043Z,92.66
2023-02-02T12:05:20.549Z,93.66
2023-02-02T12:10:47.400Z,92.75
2023-02-02T12:16:16.639Z,92.61
2023-02-02T12:21:28.041Z,92.85
2023-02-02T12:26:34.324Z,93.39
2023-02-02T12:32:00.322Z,92.80
2023-02-02T12:37:26.681Z,92.94
2023-02-02T12:42:52.448Z,92.67
2023-02-02T12:48:21.680Z,92.65
2023-02-02T12:53:40.283Z,92.63
2023-02-02T12:59:16.928Z,92.34
2023-02-02T13:04:21.550Z,93.27
2023-02-02T13:09:50.057Z,92.60
2023-02-02T13:14:59.618Z,92.28
2023-02-02T13:20:05.472Z,93.19
2023-02-02T13:25:17.512Z,92.83
2023-02-02T13:30:35.162Z,92.73
2023-02-02T13:35:51.412Z,92.74
2023-02-02T13:40:59.769Z,92.64
2023-02-02T13:46:19.687Z,92.21
2023-02-02T13:51:51.053Z,92.31
2023-02-02T13:57:35.659Z,91.46
2023-02-02T14:02:45.056Z,92.24
2023-02-02T14:07:48.019Z,91.61
2023-02-02T14:12:49.978Z,91.47
2023-02-02T14:17:54.004Z,91.73
2023-02-02T14:22:55.529Z,91.81
2023-02-02T14:28:09.649Z,90.71
2023-02-02T14:33:26.807Z,91.20
2023-02-02T14:38:45.308Z,90.96
2023-02-02T14:43:51.290Z,90.56
2023-02-02T14:48:52.842Z,89.76
2023-02-02T14:54:00.693Z,89.89
2023-02-02T14:59:03.082Z,90.43
2023-02-02T15:04:19.918Z,90.05
2023-02-02T15:09:26.556Z,90.10
2023-02-02T15:14:33.959Z,89.69
2023-02-02T15:19:40.308Z,90.21
2023-02-02T15:24:45.701Z,90.62
2023-02-02T15:29:54.855Z,89.79
2023-02-02T15:35:02.192Z,90.43
2023-02-02T15:40:07.705Z,89.81
2023-02-02T15:45:29.657Z,89.58
2023-02-02T15:50:31.439Z,90.41
2023-02-02T15:55:35.587Z,90.48
2023-02-02T16:00:38.194Z,89.83
2023-02-02T16:05:56.015Z,90.98
2023-02-02T16:11:05.556Z,90.86
2023-02-02T16:16:22.394Z,91.37
2023-02-02T16:21:25.810Z,91.77
2023-02-02T16:26:30.185Z,91.74
2023-02-02T16:31:35.769Z,92.29
2023-02-02T16:36:37.428Z,92.45
2023-02-02T16:41:39.025Z,92.26
2023-02-02T16:46:49.584Z,92.14
2023-02-02T16:52:13.377Z,91.34
2023-02-02T16:57:19.613Z,91.52
2023-02-02T17:02:35.604Z,91.58
2023-02-02T17:07:38.275Z,92.04
2023-02-02T17:12:39.822Z,91.93
2023-02-02T17:17:41.358Z,90.90
2023-02-02T17:22:52.464Z,91.03
2023-02-02T17:27:55.709Z,90.77
2023-02-02T17:32:57.728Z,91.23
2023-02-02T17:37:59.320Z,90.93
2023-02-02T17:43:02.332Z,91.24
2023-02-02T17:48:04.779Z,90.36
2023-02-02T17:53:07.003Z,90.94
2023-02-02T17:58:10.552Z,91.87
2023-02-02T18:03:17.140Z,91.60
2023-02-02T18:08:18.869Z,91.28
2023-02-02T18:13:22.583Z,91.06
2023-02-02T18:18:24.161Z,91.83
2023-02-02T18:23:25.873Z,91.70
2023-02-02T18:28:27.461Z,91.91
2023-02-02T18:33:28.988Z,91.54
2023-02-02T18:38:30.586Z,91.50
2023-02-02T18:43:32.249Z,91.62
2023-02-02T18:48:33.823Z,92.20
2023-02-02T18:53:35.440Z,91.50
2023-02-02T18:58:37.161Z,91.84
2023-02-02T19:03:39.497Z,92.57
2023-02-02T19:08:41.088Z,92.83
2023-02-02T19:13:43.852Z,93.60
2023-02-02T19:18:46.253Z,93.74
2023-02-02T19:23:47.844Z,93.71
2023-02-02T19:28:49.488Z,93.76
2023-02-02T19:33:52.946Z,93.17
2023-02-02T19:39:17.203Z,93.80
2023-02-02T19:44:21.213Z,92.93
2023-02-02T19:49:22.746Z,93.01
2023-02-02T19:54:45.235Z,93.34
2023-02-02T19:59:49.272Z,92.74
2023-02-02T20:05:06.158Z,93.38
2023-02-02T20:10:24.548Z,93.26
2023-02-02T20:15:33.825Z,92.50
2023-02-02T20:20:40.625Z,93.39
2023-02-02T20:25:44.175Z,92.37
2023-02-02T20:30:49.463Z,92.49
2023-02-02T20:35:51.628Z,92.62
2023-02-02T20:40:54.114Z,92.87
2023-02-02T20:45:55.817Z,92.84
2023-02-02T20:50:57.459Z,92.65
2023-02-02T20:56:01.693Z,93.22
2023-02-02T21:01:06.278Z,93.18
2023-02-02T21:06:07.905Z,92.92
2023-02-02T21:11:09.661Z,93.02
2023-02-02T21:16:11.371Z,92.56
2023-02-02T21:21:14.257Z,92.88
2023-02-02T21:26:21.970Z,93.64
2023-02-02T21:31:24.397Z,93.24
2023-02-02T21:36:33.271Z,95.28
2023-02-02T21:41:34.904Z,95.93
2023-02-02T21:46:38.386Z,96.58
2023-02-02T21:51:39.967Z,97.05
2023-02-02T21:56:42.134Z,96.54
2023-02-02T22:01:45.098Z,96.35
2023-02-02T22:06:52.130Z,96.50
2023-02-02T22:12:02.608Z,96.29
2023-02-02T22:17:24.580Z,96.52
2023-02-02T22:22:32.590Z,96.54
2023-02-02T22:27:42.534Z,96.99
2023-02-02T22:32:44.172Z,97.55
2023-02-02T22:37:45.882Z,98.49
2023-02-02T22:42:47.609Z,99.75
2023-02-02T22:47:49.624Z,100.00
2023-02-02T22:52:51.569Z,100.00
2023-02-02T22:57:53.384Z,100.00
2023-02-02T23:02:55.613Z,100.00
2023-02-02T23:07:57.257Z,100.00
2023-02-02T23:12:59.195Z,99.99
2023-02-02T23:18:00.986Z,100.00
2023-02-02T23:23:02.685Z,99.92
2023-02-02T23:28:04.401Z,99.86
2023-02-02T23:33:06.014Z,99.80
2023-02-02T23:38:07.540Z,99.21
2023-02-02T23:43:09.142Z,99.40
2023-02-02T23:48:11.096Z,99.27
2023-02-02T23:53:13.179Z,98.42
2023-02-02T23:58:15.020Z,99.11
